createdAt,value
2022-10-29T06:15:39.976Z,1013.26
2022-10-29T06:25:40.050Z,1013.21
2022-10-29T06:35:40.054Z,1013.40
2022-10-29T06:45:39.908Z,1013.46
2022-10-29T06:55:39.910Z,1013.35
2022-10-29T07:05:39.871Z,1013.21
2022-10-29T07:15:39.997Z,1013.16
2022-10-29T07:25:39.935Z,1013.17
2022-10-29T07:35:40.089Z,1013.23
2022-10-29T07:45:39.966Z,1013.22
2022-10-29T07:55:39.939Z,1013.33
2022-10-29T08:05:42.577Z,1013.41
2022-10-29T08:15:39.880Z,1013.45
2022-10-29T08:25:40.021Z,1013.89
2022-10-29T08:35:39.977Z,1013.93
2022-10-29T08:45:40.006Z,1014.15
2022-10-29T08:55:39.978Z,1014.03
2022-10-29T09:05:39.991Z,1014.05
2022-10-29T09:15:40.023Z,1013.95
2022-10-29T09:25:40.033Z,1013.81
2022-10-29T09:35:39.939Z,1013.99
2022-10-29T09:45:40.039Z,1014.06
2022-10-29T09:55:40.055Z,1014.00
2022-10-29T10:05:40.216Z,1013.89
2022-10-29T10:15:40.139Z,1013.82
2022-10-29T10:25:40.188Z,1013.71
2022-10-29T10:35:40.394Z,1013.66
2022-10-29T10:45:40.299Z,1013.72
2022-10-29T10:55:40.277Z,1013.51
2022-10-29T11:05:40.325Z,1013.28
2022-10-29T11:15:40.356Z,1013.03
2022-10-29T11:25:40.270Z,1012.92
2022-10-29T11:35:40.292Z,1012.84
2022-10-29T11:45:40.250Z,1012.75
2022-10-29T11:55:40.239Z,1012.75
2022-10-29T12:05:40.175Z,1012.79
2022-10-29T12:15:40.323Z,1012.65
2022-10-29T12:25:40.358Z,1012.45
2022-10-29T12:35:40.288Z,1012.27
2022-10-29T12:45:59.528Z,1012.11
2022-10-29T12:55:40.392Z,1011.86
2022-10-29T13:05:40.366Z,1011.92
2022-10-29T13:15:40.384Z,1011.88
2022-10-29T13:25:40.451Z,1011.81
2022-10-29T13:35:40.246Z,1011.88
2022-10-29T13:45:40.345Z,1012.07
2022-10-29T13:55:40.398Z,1011.94
2022-10-29T14:05:40.441Z,1011.95
2022-10-29T14:15:40.315Z,1012.03
2022-10-29T14:25:40.461Z,1011.90
2022-10-29T14:35:40.473Z,1011.84
2022-10-29T14:45:40.411Z,1011.86
2022-10-29T14:55:40.531Z,1011.90
2022-10-29T15:05:40.383Z,1011.77
2022-10-29T15:15:40.469Z,1011.57
2022-10-29T15:25:40.548Z,1011.66
2022-10-29T15:35:40.622Z,1011.53
2022-10-29T15:45:40.677Z,1011.65
2022-10-29T15:55:40.686Z,1011.67
2022-10-29T16:05:40.614Z,1011.72
2022-10-29T16:15:43.307Z,1011.55
2022-10-29T16:25:40.595Z,1011.71
2022-10-29T16:35:40.628Z,1011.53
2022-10-29T16:45:40.754Z,1011.50
2022-10-29T16:55:40.567Z,1011.61
2022-10-29T17:05:40.579Z,1011.61
2022-10-29T17:15:40.658Z,1011.48
2022-10-29T17:25:40.727Z,1011.49
2022-10-29T17:35:40.804Z,1011.40
2022-10-29T17:45:40.730Z,1011.47
2022-10-29T17:55:40.745Z,1011.34
2022-10-29T18:05:40.719Z,1011.47
2022-10-29T18:15:40.754Z,1011.54
2022-10-29T18:25:40.774Z,1011.53
2022-10-29T18:35:40.870Z,1011.49
2022-10-29T18:45:40.888Z,1011.50
2022-10-29T18:55:40.956Z,1011.47
2022-10-29T19:05:41.121Z,1011.44
2022-10-29T19:15:41.331Z,1011.54
